sensor_id;sensor_type;location;lat;lon;timestamp;pressure;altitude;pressure_sealevel;temperature;humidity
40908;BME280;51055;59.436;24.778;2022-12-18T00:01:28;102476.97;;;-9.55;100.00
40908;BME280;51055;59.436;24.778;2022-12-18T00:03:57;102480.19;;;-9.62;100.00
40908;BME280;51055;59.436;24.778;2022-12-18T00:06:27;102466.56;;;-9.60;100.00
40908;BME280;51055;59.436;24.778;2022-12-18T00:08:56;102470.69;;;-9.65;100.00
40908;BME280;51055;59.436;24.778;2022-12-18T00:11:27;102470.31;;;-9.77;100.00
40908;BME280;51055;59.436;24.778;2022-12-18T00:13:58;102460.00;;;-9.78;100.00
40908;BME280;51055;59.436;24.778;2022-12-18T00:16:27;102459.84;;;-9.83;100.00
40908;BME280;51055;59.436;24.778;2022-12-18T00:18:57;102457.38;;;-9.80;100.00
40908;BME280;51055;59.436;24.778;2022-12-18T00:21:27;102453.22;;;-9.76;100.00
40908;BME280;51055;59.436;24.778;2022-12-18T00:23:55;102466.69;;;-9.83;100.00
40908;BME280;51055;59.436;24.778;2022-12-18T00:26:26;102462.69;;;-9.75;100.00
40908;BME280;51055;59.436;24.778;2022-12-18T00:28:54;102462.75;;;-9.72;100.00
40908;BME280;51055;59.436;24.778;2022-12-18T00:31:24;102454.22;;;-9.71;100.00
40908;BME280;51055;59.436;24.778;2022-12-18T00:33:56;102450.91;;;-9.67;100.00
40908;BME280;51055;59.436;24.778;2022-12-18T00:36:27;102452.34;;;-9.77;100.00
40908;BME280;51055;59.436;24.778;2022-12-18T00:38:57;102454.97;;;-9.75;100.00
40908;BME280;51055;59.436;24.778;2022-12-18T00:41:25;102445.25;;;-9.85;100.00
40908;BME280;51055;59.436;24.778;2022-12-18T00:44:14;102447.28;;;-9.75;100.00
40908;BME280;51055;59.436;24.778;2022-12-18T00:46:43;102440.31;;;-9.78;100.00
40908;BME280;51055;59.436;24.778;2022-12-18T00:49:18;102457.22;;;-9.84;100.00
40908;BME280;51055;59.436;24.778;2022-12-18T00:51:47;102439.22;;;-9.86;100.00
40908;BME280;51055;59.436;24.778;2022-12-18T00:54:15;102423.22;;;-9.77;100.00
40908;BME280;51055;59.436;24.778;2022-12-18T00:56:43;102436.78;;;-9.81;100.00
40908;BME280;51055;59.436;24.778;2022-12-18T00:59:16;102441.97;;;-9.80;100.00
40908;BME280;51055;59.436;24.778;2022-12-18T01:01:44;102426.50;;;-9.83;100.00
40908;BME280;51055;59.436;24.778;2022-12-18T01:04:12;102430.13;;;-9.76;100.00
40908;BME280;51055;59.436;24.778;2022-12-18T01:06:40;102424.09;;;-9.77;100.00
40908;BME280;51055;59.436;24.778;2022-12-18T01:09:07;102416.50;;;-9.74;100.00
40908;BME280;51055;59.436;24.778;2022-12-18T01:11:35;102423.38;;;-9.73;100.00
40908;BME280;51055;59.436;24.778;2022-12-18T01:14:02;102421.50;;;-9.78;100.00
40908;BME280;51055;59.436;24.778;2022-12-18T01:16:30;102434.97;;;-9.85;100.00
40908;BME280;51055;59.436;24.778;2022-12-18T01:18:58;102420.31;;;-9.88;100.00
40908;BME280;51055;59.436;24.778;2022-12-18T01:21:25;102419.47;;;-9.88;100.00
40908;BME280;51055;59.436;24.778;2022-12-18T01:23:54;102427.94;;;-9.91;100.00
40908;BME280;51055;59.436;24.778;2022-12-18T01:26:23;102428.69;;;-9.95;100.00
40908;BME280;51055;59.436;24.778;2022-12-18T01:28:51;102416.69;;;-9.94;100.00
40908;BME280;51055;59.436;24.778;2022-12-18T01:31:22;102411.56;;;-9.94;100.00
40908;BME280;51055;59.436;24.778;2022-12-18T01:33:51;102402.97;;;-9.96;100.00
40908;BME280;51055;59.436;24.778;2022-12-18T01:36:19;102411.72;;;-9.90;100.00
40908;BME280;51055;59.436;24.778;2022-12-18T01:38:48;102405.72;;;-9.90;100.00
40908;BME280;51055;59.436;24.778;2022-12-18T01:41:19;102403.13;;;-9.92;100.00
40908;BME280;51055;59.436;24.778;2022-12-18T01:46:15;102398.09;;;-9.87;100.00
40908;BME280;51055;59.436;24.778;2022-12-18T01:48:45;102410.94;;;-9.87;100.00
40908;BME280;51055;59.436;24.778;2022-12-18T01:51:15;102404.91;;;-9.89;100.00
40908;BME280;51055;59.436;24.778;2022-12-18T01:53:43;102404.25;;;-9.82;100.00
40908;BME280;51055;59.436;24.778;2022-12-18T01:56:14;102403.47;;;-9.80;100.00
40908;BME280;51055;59.436;24.778;2022-12-18T01:59:04;102413.91;;;-9.74;100.00
40908;BME280;51055;59.436;24.778;2022-12-18T02:01:34;102402.78;;;-9.74;100.00
40908;BME280;51055;59.436;24.778;2022-12-18T02:04:21;102402.94;;;-9.68;100.00
40908;BME280;51055;59.436;24.778;2022-12-18T02:06:54;102407.19;;;-9.70;100.00
40908;BME280;51055;59.436;24.778;2022-12-18T02:09:31;102402.03;;;-9.70;100.00
40908;BME280;51055;59.436;24.778;2022-12-18T02:12:33;102408.16;;;-9.67;100.00
40908;BME280;51055;59.436;24.778;2022-12-18T02:15:09;102408.09;;;-9.68;100.00
40908;BME280;51055;59.436;24.778;2022-12-18T02:17:46;102401.81;;;-9.49;100.00
40908;BME280;51055;59.436;24.778;2022-12-18T02:20:30;102409.78;;;-9.40;100.00
40908;BME280;51055;59.436;24.778;2022-12-18T02:28:25;102410.19;;;-9.55;100.00
40908;BME280;51055;59.436;24.778;2022-12-18T02:30:58;102409.19;;;-9.60;100.00
40908;BME280;51055;59.436;24.778;2022-12-18T02:33:28;102404.38;;;-9.49;100.00
40908;BME280;51055;59.436;24.778;2022-12-18T02:35:58;102414.69;;;-9.48;100.00
40908;BME280;51055;59.436;24.778;2022-12-18T02:38:28;102404.50;;;-9.45;100.00
40908;BME280;51055;59.436;24.778;2022-12-18T02:40:57;102411.22;;;-9.50;100.00
40908;BME280;51055;59.436;24.778;2022-12-18T02:43:25;102399.09;;;-9.54;100.00
40908;BME280;51055;59.436;24.778;2022-12-18T02:45:57;102401.34;;;-9.36;100.00
40908;BME280;51055;59.436;24.778;2022-12-18T02:48:32;102402.22;;;-9.36;100.00
40908;BME280;51055;59.436;24.778;2022-12-18T02:51:11;102389.47;;;-9.31;100.00
40908;BME280;51055;59.436;24.778;2022-12-18T02:53:46;102390.41;;;-9.29;100.00
40908;BME280;51055;59.436;24.778;2022-12-18T02:56:20;102392.00;;;-9.33;100.00
40908;BME280;51055;59.436;24.778;2022-12-18T02:59:02;102397.44;;;-9.22;100.00
40908;BME280;51055;59.436;24.778;2022-12-18T03:01:57;102383.75;;;-9.21;100.00
40908;BME280;51055;59.436;24.778;2022-12-18T03:04:34;102393.38;;;-9.14;100.00
40908;BME280;51055;59.436;24.778;2022-12-18T03:07:14;102377.25;;;-9.09;100.00
40908;BME280;51055;59.436;24.778;2022-12-18T03:09:46;102381.44;;;-9.12;100.00
40908;BME280;51055;59.436;24.778;2022-12-18T03:12:20;102388.25;;;-9.13;100.00
40908;BME280;51055;59.436;24.778;2022-12-18T03:14:56;102381.59;;;-9.06;100.00
40908;BME280;51055;59.436;24.778;2022-12-18T03:17:27;102389.50;;;-9.00;100.00
40908;BME280;51055;59.436;24.778;2022-12-18T03:20:02;102380.03;;;-9.00;100.00
40908;BME280;51055;59.436;24.778;2022-12-18T03:22:33;102377.66;;;-8.93;100.00
40908;BME280;51055;59.436;24.778;2022-12-18T03:25:05;102381.00;;;-8.96;100.00
40908;BME280;51055;59.436;24.778;2022-12-18T03:27:36;102384.44;;;-8.95;100.00
40908;BME280;51055;59.436;24.778;2022-12-18T03:30:08;102382.03;;;-8.89;100.00
40908;BME280;51055;59.436;24.778;2022-12-18T03:33:00;102388.19;;;-8.84;100.00
40908;BME280;51055;59.436;24.778;2022-12-18T03:35:32;102384.81;;;-8.82;100.00
40908;BME280;51055;59.436;24.778;2022-12-18T03:38:01;102384.16;;;-8.75;100.00
40908;BME280;51055;59.436;24.778;2022-12-18T03:40:41;102385.16;;;-8.68;100.00
40908;BME280;51055;59.436;24.778;2022-12-18T03:43:16;102382.81;;;-8.59;100.00
40908;BME280;51055;59.436;24.778;2022-12-18T03:46:08;102373.53;;;-8.54;100.00
40908;BME280;51055;59.436;24.778;2022-12-18T03:48:41;102379.59;;;-8.51;100.00
40908;BME280;51055;59.436;24.778;2022-12-18T03:51:23;102379.69;;;-8.48;100.00
40908;BME280;51055;59.436;24.778;2022-12-18T03:53:57;102382.41;;;-8.41;100.00
40908;BME280;51055;59.436;24.778;2022-12-18T03:56:29;102374.75;;;-8.38;100.00
40908;BME280;51055;59.436;24.778;2022-12-18T03:58:59;102370.50;;;-8.36;100.00
40908;BME280;51055;59.436;24.778;2022-12-18T04:01:35;102363.53;;;-8.40;100.00
40908;BME280;51055;59.436;24.778;2022-12-18T04:04:05;102360.97;;;-8.40;100.00
40908;BME280;51055;59.436;24.778;2022-12-18T04:06:35;102366.03;;;-8.45;100.00
40908;BME280;51055;59.436;24.778;2022-12-18T04:09:04;102370.25;;;-8.47;100.00
40908;BME280;51055;59.436;24.778;2022-12-18T04:11:33;102372.06;;;-8.43;100.00
40908;BME280;51055;59.436;24.778;2022-12-18T04:14:00;102362.59;;;-8.44;100.00
40908;BME280;51055;59.436;24.778;2022-12-18T04:16:33;102366.84;;;-8.46;100.00
40908;BME280;51055;59.436;24.778;2022-12-18T04:19:00;102375.31;;;-8.50;100.00
40908;BME280;51055;59.436;24.778;2022-12-18T04:21:28;102367.94;;;-8.36;100.00
40908;BME280;51055;59.436;24.778;2022-12-18T04:23:56;102369.50;;;-8.43;100.00
40908;BME280;51055;59.436;24.778;2022-12-18T04:26:23;102371.84;;;-8.52;100.00
40908;BME280;51055;59.436;24.778;2022-12-18T04:28:51;102375.44;;;-8.46;100.00
40908;BME280;51055;59.436;24.778;2022-12-18T04:31:19;102373.84;;;-8.40;100.00
40908;BME280;51055;59.436;24.778;2022-12-18T04:33:46;102366.13;;;-8.40;100.00
40908;BME280;51055;59.436;24.778;2022-12-18T04:36:14;102356.88;;;-8.32;100.00
40908;BME280;51055;59.436;24.778;2022-12-18T04:38:41;102371.53;;;-8.30;100.00
40908;BME280;51055;59.436;24.778;2022-12-18T04:41:09;102363.81;;;-8.30;100.00
40908;BME280;51055;59.436;24.778;2022-12-18T04:43:37;102364.63;;;-8.31;100.00
40908;BME280;51055;59.436;24.778;2022-12-18T04:46:06;102374.09;;;-8.30;100.00
40908;BME280;51055;59.436;24.778;2022-12-18T04:48:35;102367.13;;;-8.34;100.00
40908;BME280;51055;59.436;24.778;2022-12-18T04:51:04;102363.84;;;-8.28;100.00
40908;BME280;51055;59.436;24.778;2022-12-18T04:53:32;102365.59;;;-8.26;100.00
40908;BME280;51055;59.436;24.778;2022-12-18T04:56:11;102365.53;;;-8.27;100.00
40908;BME280;51055;59.436;24.778;2022-12-18T04:58:40;102359.53;;;-8.29;100.00
40908;BME280;51055;59.436;24.778;2022-12-18T05:01:09;102362.84;;;-8.33;100.00
40908;BME280;51055;59.436;24.778;2022-12-18T05:03:37;102360.34;;;-8.32;100.00
40908;BME280;51055;59.436;24.778;2022-12-18T05:06:06;102363.84;;;-8.27;100.00
40908;BME280;51055;59.436;24.778;2022-12-18T05:08:34;102358.81;;;-8.22;100.00
40908;BME280;51055;59.436;24.778;2022-12-18T05:11:07;102360.66;;;-8.17;100.00
40908;BME280;51055;59.436;24.778;2022-12-18T05:13:35;102367.47;;;-8.19;100.00
40908;BME280;51055;59.436;24.778;2022-12-18T05:16:05;102364.75;;;-8.25;100.00
40908;BME280;51055;59.436;24.778;2022-12-18T05:18:33;102358.69;;;-8.27;100.00
40908;BME280;51055;59.436;24.778;2022-12-18T05:21:01;102358.69;;;-8.27;100.00
40908;BME280;51055;59.436;24.778;2022-12-18T05:23:29;102345.88;;;-8.25;100.00
40908;BME280;51055;59.436;24.778;2022-12-18T05:26:01;102343.38;;;-8.22;100.00
40908;BME280;51055;59.436;24.778;2022-12-18T05:28:31;102340.03;;;-8.18;100.00
40908;BME280;51055;59.436;24.778;2022-12-18T05:31:01;102323.78;;;-8.16;100.00
40908;BME280;51055;59.436;24.778;2022-12-18T05:33:32;102323.09;;;-8.09;100.00
40908;BME280;51055;59.436;24.778;2022-12-18T05:36:05;102333.56;;;-8.00;100.00
40908;BME280;51055;59.436;24.778;2022-12-18T05:38:34;102334.34;;;-8.04;100.00
40908;BME280;51055;59.436;24.778;2022-12-18T05:41:03;102331.03;;;-7.98;100.00
40908;BME280;51055;59.436;24.778;2022-12-18T05:43:31;102333.53;;;-8.01;100.00
40908;BME280;51055;59.436;24.778;2022-12-18T05:46:03;102320.13;;;-7.85;100.00
40908;BME280;51055;59.436;24.778;2022-12-18T05:48:31;102330.38;;;-7.89;100.00
40908;BME280;51055;59.436;24.778;2022-12-18T05:51:07;102332.03;;;-7.92;100.00
40908;BME280;51055;59.436;24.778;2022-12-18T05:53:36;102312.97;;;-8.00;100.00
40908;BME280;51055;59.436;24.778;2022-12-18T05:56:07;102315.69;;;-7.94;100.00
40908;BME280;51055;59.436;24.778;2022-12-18T05:58:35;102325.28;;;-7.85;100.00
40908;BME280;51055;59.436;24.778;2022-12-18T06:01:10;102330.56;;;-7.80;100.00
40908;BME280;51055;59.436;24.778;2022-12-18T06:03:38;102332.38;;;-7.76;100.00
40908;BME280;51055;59.436;24.778;2022-12-18T06:06:33;102329.03;;;-7.72;100.00
40908;BME280;51055;59.436;24.778;2022-12-18T06:09:01;102328.88;;;-7.78;100.00
40908;BME280;51055;59.436;24.778;2022-12-18T06:11:28;102329.84;;;-7.72;100.00
40908;BME280;51055;59.436;24.778;2022-12-18T06:13:56;102331.66;;;-7.68;100.00
40908;BME280;51055;59.436;24.778;2022-12-18T06:16:26;102337.63;;;-7.70;100.00
40908;BME280;51055;59.436;24.778;2022-12-18T06:18:58;102331.78;;;-7.63;100.00
40908;BME280;51055;59.436;24.778;2022-12-18T06:21:27;102331.72;;;-7.65;100.00
40908;BME280;51055;59.436;24.778;2022-12-18T06:23:55;102329.09;;;-7.68;100.00
40908;BME280;51055;59.436;24.778;2022-12-18T06:26:24;102324.75;;;-7.70;100.00
40908;BME280;51055;59.436;24.778;2022-12-18T06:28:55;102323.94;;;-7.69;100.00
40908;BME280;51055;59.436;24.778;2022-12-18T06:31:23;102323.88;;;-7.72;100.00
40908;BME280;51055;59.436;24.778;2022-12-18T06:33:50;102330.72;;;-7.73;100.00
40908;BME280;51055;59.436;24.778;2022-12-18T06:36:18;102331.66;;;-7.69;100.00
40908;BME280;51055;59.436;24.778;2022-12-18T06:38:46;102341.22;;;-7.64;100.00
40908;BME280;51055;59.436;24.778;2022-12-18T06:41:16;102338.56;;;-7.67;100.00
40908;BME280;51055;59.436;24.778;2022-12-18T06:43:44;102345.72;;;-7.54;100.00
40908;BME280;51055;59.436;24.778;2022-12-18T06:46:12;102341.38;;;-7.55;100.00
40908;BME280;51055;59.436;24.778;2022-12-18T06:48:40;102355.91;;;-7.58;100.00
40908;BME280;51055;59.436;24.778;2022-12-18T06:51:08;102356.88;;;-7.53;100.00
40908;BME280;51055;59.436;24.778;2022-12-18T06:53:35;102359.53;;;-7.49;100.00
40908;BME280;51055;59.436;24.778;2022-12-18T06:56:05;102352.81;;;-7.42;100.00
40908;BME280;51055;59.436;24.778;2022-12-18T06:58:38;102355.53;;;-7.34;100.00
40908;BME280;51055;59.436;24.778;2022-12-18T07:01:07;102355.41;;;-7.41;100.00
40908;BME280;51055;59.436;24.778;2022-12-18T07:03:34;102360.59;;;-7.39;100.00
40908;BME280;51055;59.436;24.778;2022-12-18T07:06:02;102359.03;;;-7.31;100.00
40908;BME280;51055;59.436;24.778;2022-12-18T07:08:30;102360.91;;;-7.22;100.00
40908;BME280;51055;59.436;24.778;2022-12-18T07:10:58;102355.81;;;-7.21;100.00
40908;BME280;51055;59.436;24.778;2022-12-18T07:13:25;102364.69;;;-7.07;100.00
40908;BME280;51055;59.436;24.778;2022-12-18T07:15:54;102353.41;;;-7.12;100.00
40908;BME280;51055;59.436;24.778;2022-12-18T07:18:21;102355.09;;;-7.12;100.00
40908;BME280;51055;59.436;24.778;2022-12-18T07:20:49;102352.56;;;-7.11;100.00
40908;BME280;51055;59.436;24.778;2022-12-18T07:23:17;102347.41;;;-7.09;100.00
40908;BME280;51055;59.436;24.778;2022-12-18T07:25:45;102347.53;;;-7.03;100.00
40908;BME280;51055;59.436;24.778;2022-12-18T07:28:12;102353.56;;;-7.03;100.00
40908;BME280;51055;59.436;24.778;2022-12-18T07:30:43;102342.44;;;-7.00;100.00
40908;BME280;51055;59.436;24.778;2022-12-18T07:33:11;102329.66;;;-6.94;100.00
40908;BME280;51055;59.436;24.778;2022-12-18T07:35:39;102321.09;;;-6.90;100.00
40908;BME280;51055;59.436;24.778;2022-12-18T07:38:07;102327.19;;;-6.88;100.00
40908;BME280;51055;59.436;24.778;2022-12-18T07:40:35;102333.22;;;-6.88;100.00
40908;BME280;51055;59.436;24.778;2022-12-18T07:43:02;102330.72;;;-6.81;100.00
40908;BME280;51055;59.436;24.778;2022-12-18T07:45:30;102319.69;;;-6.73;100.00
40908;BME280;51055;59.436;24.778;2022-12-18T07:47:58;102316.31;;;-6.67;100.00
40908;BME280;51055;59.436;24.778;2022-12-18T07:50:26;102322.31;;;-6.70;100.00
40908;BME280;51055;59.436;24.778;2022-12-18T07:52:53;102320.50;;;-6.74;100.00
40908;BME280;51055;59.436;24.778;2022-12-18T07:55:21;102323.13;;;-6.72;100.00
40908;BME280;51055;59.436;24.778;2022-12-18T07:57:49;102312.34;;;-6.47;100.00
40908;BME280;51055;59.436;24.778;2022-12-18T08:00:21;102315.75;;;-6.50;100.00
40908;BME280;51055;59.436;24.778;2022-12-18T08:02:49;102310.41;;;-6.62;100.00
40908;BME280;51055;59.436;24.778;2022-12-18T08:05:16;102316.22;;;-6.73;100.00
40908;BME280;51055;59.436;24.778;2022-12-18T08:07:44;102320.59;;;-6.71;100.00
40908;BME280;51055;59.436;24.778;2022-12-18T08:10:12;102333.72;;;-6.56;100.00
40908;BME280;51055;59.436;24.778;2022-12-18T08:12:40;102326.88;;;-6.55;100.00
40908;BME280;51055;59.436;24.778;2022-12-18T08:15:08;102317.69;;;-6.38;100.00
40908;BME280;51055;59.436;24.778;2022-12-18T08:17:36;102322.75;;;-6.43;100.00
40908;BME280;51055;59.436;24.778;2022-12-18T08:20:03;102326.44;;;-6.28;100.00
40908;BME280;51055;59.436;24.778;2022-12-18T08:22:34;102319.69;;;-6.17;100.00
40908;BME280;51055;59.436;24.778;2022-12-18T08:25:03;102319.59;;;-6.23;100.00
40908;BME280;51055;59.436;24.778;2022-12-18T08:27:31;102321.31;;;-6.24;100.00
40908;BME280;51055;59.436;24.778;2022-12-18T08:30:00;102315.63;;;-5.99;100.00
40908;BME280;51055;59.436;24.778;2022-12-18T08:32:28;102317.38;;;-5.98;100.00
40908;BME280;51055;59.436;24.778;2022-12-18T08:34:56;102319.16;;;-5.94;100.00
40908;BME280;51055;59.436;24.778;2022-12-18T08:37:23;102325.19;;;-5.92;100.00
40908;BME280;51055;59.436;24.778;2022-12-18T08:39:51;102327.66;;;-6.01;100.00
40908;BME280;51055;59.436;24.778;2022-12-18T08:42:19;102316.56;;;-5.94;100.00
40908;BME280;51055;59.436;24.778;2022-12-18T08:45:05;102317.38;;;-5.98;100.00
40908;BME280;51055;59.436;24.778;2022-12-18T08:47:33;102308.06;;;-5.82;100.00
40908;BME280;51055;59.436;24.778;2022-12-18T08:50:00;102309.13;;;-5.68;100.00
40908;BME280;51055;59.436;24.778;2022-12-18T08:52:28;102310.91;;;-5.62;100.00
40908;BME280;51055;59.436;24.778;2022-12-18T08:54:58;102313.44;;;-5.65;100.00
40908;BME280;51055;59.436;24.778;2022-12-18T08:57:25;102308.47;;;-5.50;100.00
40908;BME280;51055;59.436;24.778;2022-12-18T08:59:53;102311.97;;;-5.45;100.00
40908;BME280;51055;59.436;24.778;2022-12-18T09:02:21;102310.19;;;-5.49;100.00
40908;BME280;51055;59.436;24.778;2022-12-18T09:04:49;102304.22;;;-5.45;100.00
40908;BME280;51055;59.436;24.778;2022-12-18T09:07:23;102300.91;;;-5.34;100.00
40908;BME280;51055;59.436;24.778;2022-12-18T09:09:51;102290.69;;;-5.21;100.00
40908;BME280;51055;59.436;24.778;2022-12-18T09:12:18;102289.31;;;-4.85;100.00
40908;BME280;51055;59.436;24.778;2022-12-18T09:14:46;102296.97;;;-4.94;100.00
40908;BME280;51055;59.436;24.778;2022-12-18T09:17:14;102297.72;;;-5.05;100.00
40908;BME280;51055;59.436;24.778;2022-12-18T09:19:42;102305.72;;;-4.80;100.00
40908;BME280;51055;59.436;24.778;2022-12-18T09:22:10;102301.38;;;-4.84;100.00
40908;BME280;51055;59.436;24.778;2022-12-18T09:24:38;102294.38;;;-4.95;100.00
40908;BME280;51055;59.436;24.778;2022-12-18T09:27:06;102291.88;;;-4.88;100.00
40908;BME280;51055;59.436;24.778;2022-12-18T09:29:34;102293.75;;;-4.65;100.00
40908;BME280;51055;59.436;24.778;2022-12-18T09:32:01;102291.06;;;-4.79;100.00
40908;BME280;51055;59.436;24.778;2022-12-18T09:34:29;102280.81;;;-4.64;100.00
40908;BME280;51055;59.436;24.778;2022-12-18T09:36:57;102274.09;;;-4.41;100.00
40908;BME280;51055;59.436;24.778;2022-12-18T09:39:25;102269.72;;;-4.48;100.00
40908;BME280;51055;59.436;24.778;2022-12-18T09:41:54;102270.50;;;-4.59;100.00
40908;BME280;51055;59.436;24.778;2022-12-18T09:44:30;102267.03;;;-4.63;100.00
40908;BME280;51055;59.436;24.778;2022-12-18T09:47:23;102270.41;;;-4.73;100.00
40908;BME280;51055;59.436;24.778;2022-12-18T09:49:56;102266.44;;;-4.18;100.00
40908;BME280;51055;59.436;24.778;2022-12-18T09:52:30;102272.44;;;-4.28;100.00
40908;BME280;51055;59.436;24.778;2022-12-18T09:57:47;102263.97;;;-4.00;100.00
40908;BME280;51055;59.436;24.778;2022-12-18T10:00:21;102260.56;;;-3.79;100.00
40908;BME280;51055;59.436;24.778;2022-12-18T10:03:01;102255.38;;;-3.82;100.00
40908;BME280;51055;59.436;24.778;2022-12-18T10:05:43;102251.06;;;-3.83;100.00
40908;BME280;51055;59.436;24.778;2022-12-18T10:17:00;102274.44;;;-3.70;100.00
40908;BME280;51055;59.436;24.778;2022-12-18T10:27:44;102266.78;;;-3.35;100.00
40908;BME280;51055;59.436;24.778;2022-12-18T10:30:14;102252.91;;;-3.34;100.00
40908;BME280;51055;59.436;24.778;2022-12-18T10:32:42;102248.63;;;-3.10;100.00
40908;BME280;51055;59.436;24.778;2022-12-18T10:35:22;102250.38;;;-3.05;100.00
40908;BME280;51055;59.436;24.778;2022-12-18T10:38:07;102233.06;;;-2.89;100.00
40908;BME280;51055;59.436;24.778;2022-12-18T10:43:29;102229.63;;;-2.88;100.00
40908;BME280;51055;59.436;24.778;2022-12-18T10:46:17;102235.66;;;-2.94;100.00
40908;BME280;51055;59.436;24.778;2022-12-18T10:48:48;102231.34;;;-2.92;100.00
40908;BME280;51055;59.436;24.778;2022-12-18T10:51:21;102219.25;;;-2.88;100.00
40908;BME280;51055;59.436;24.778;2022-12-18T10:53:53;102223.56;;;-2.86;100.00
40908;BME280;51055;59.436;24.778;2022-12-18T10:56:24;102218.38;;;-2.89;100.00
40908;BME280;51055;59.436;24.778;2022-12-18T11:01:44;102224.41;;;-2.78;100.00
40908;BME280;51055;59.436;24.778;2022-12-18T11:04:19;102232.19;;;-2.70;100.00
40908;BME280;51055;59.436;24.778;2022-12-18T11:07:06;102220.09;;;-2.79;100.00
40908;BME280;51055;59.436;24.778;2022-12-18T11:09:36;102220.97;;;-2.89;100.00
40908;BME280;51055;59.436;24.778;2022-12-18T11:12:13;102215.72;;;-2.62;100.00
40908;BME280;51055;59.436;24.778;2022-12-18T11:14:53;102217.50;;;-2.76;100.00
40908;BME280;51055;59.436;24.778;2022-12-18T11:17:33;102209.69;;;-2.59;100.00
40908;BME280;51055;59.436;24.778;2022-12-18T11:20:05;102207.94;;;-2.60;100.00
40908;BME280;51055;59.436;24.778;2022-12-18T11:22:37;102211.41;;;-2.63;100.00
40908;BME280;51055;59.436;24.778;2022-12-18T11:25:18;102201.00;;;-2.55;100.00
40908;BME280;51055;59.436;24.778;2022-12-18T11:28:05;102204.44;;;-2.36;100.00
40908;BME280;51055;59.436;24.778;2022-12-18T11:30:36;102195.78;;;-2.44;100.00
40908;BME280;51055;59.436;24.778;2022-12-18T11:35:55;102188.84;;;-2.44;100.00
40908;BME280;51055;59.436;24.778;2022-12-18T11:38:28;102183.59;;;-2.24;100.00
40908;BME280;51055;59.436;24.778;2022-12-18T11:41:10;102182.78;;;-2.37;100.00
40908;BME280;51055;59.436;24.778;2022-12-18T11:43:59;102180.97;;;-2.26;100.00
40908;BME280;51055;59.436;24.778;2022-12-18T11:46:36;102184.41;;;-2.19;100.00
40908;BME280;51055;59.436;24.778;2022-12-18T11:49:17;102186.16;;;-2.18;100.00
40908;BME280;51055;59.436;24.778;2022-12-18T11:51:55;102179.28;;;-2.34;100.00
40908;BME280;51055;59.436;24.778;2022-12-18T11:54:25;102176.63;;;-2.18;100.00
40908;BME280;51055;59.436;24.778;2022-12-18T11:56:56;102171.41;;;-2.19;100.00
40908;BME280;51055;59.436;24.778;2022-12-18T12:10:47;102156.63;;;-2.02;100.00
40908;BME280;51055;59.436;24.778;2022-12-18T12:16:15;102151.38;;;-1.96;100.00
40908;BME280;51055;59.436;24.778;2022-12-18T12:21:42;102145.31;;;-1.90;100.00
40908;BME280;51055;59.436;24.778;2022-12-18T12:38:48;102134.88;;;-1.86;100.00
40908;BME280;51055;59.436;24.778;2022-12-18T12:41:22;102133.97;;;-1.79;100.00
40908;BME280;51055;59.436;24.778;2022-12-18T12:44:15;102118.22;;;-1.64;100.00
40908;BME280;51055;59.436;24.778;2022-12-18T12:46:44;102129.59;;;-1.72;100.00
40908;BME280;51055;59.436;24.778;2022-12-18T12:49:19;102115.66;;;-1.67;100.00
40908;BME280;51055;59.436;24.778;2022-12-18T12:51:58;102112.16;;;-1.61;100.00
40908;BME280;51055;59.436;24.778;2022-12-18T12:54:28;102122.22;;;-1.20;100.00
40908;BME280;51055;59.436;24.778;2022-12-18T12:57:13;102115.25;;;-1.17;100.00
40908;BME280;51055;59.436;24.778;2022-12-18T13:00:05;102113.69;;;-1.34;100.00
40908;BME280;51055;59.436;24.778;2022-12-18T13:02:44;102112.91;;;-1.47;100.00
40908;BME280;51055;59.436;24.778;2022-12-18T13:08:23;102122.38;;;-1.37;100.00
40908;BME280;51055;59.436;24.778;2022-12-18T13:10:53;102121.38;;;-1.24;100.00
40908;BME280;51055;59.436;24.778;2022-12-18T13:13:53;102118.97;;;-1.46;100.00
40908;BME280;51055;59.436;24.778;2022-12-18T13:16:24;102119.59;;;-1.17;100.00
40908;BME280;51055;59.436;24.778;2022-12-18T13:18:57;102101.47;;;-1.25;100.00
40908;BME280;51055;59.436;24.778;2022-12-18T13:21:29;102100.63;;;-1.30;100.00
40908;BME280;51055;59.436;24.778;2022-12-18T13:24:16;102105.78;;;-1.24;100.00
40908;BME280;51055;59.436;24.778;2022-12-18T13:26:48;102090.06;;;-1.13;100.00
40908;BME280;51055;59.436;24.778;2022-12-18T13:29:45;102087.47;;;-1.12;100.00
40908;BME280;51055;59.436;24.778;2022-12-18T13:32:24;102094.47;;;-1.20;100.00
40908;BME280;51055;59.436;24.778;2022-12-18T13:37:52;102090.78;;;-1.00;100.00
40908;BME280;51055;59.436;24.778;2022-12-18T13:43:24;102076.16;;;-1.11;100.00
40908;BME280;51055;59.436;24.778;2022-12-18T13:49:06;102079.50;;;-0.99;100.00
40908;BME280;51055;59.436;24.778;2022-12-18T13:51:50;102084.69;;;-0.98;100.00
40908;BME280;51055;59.436;24.778;2022-12-18T13:54:34;102087.19;;;-0.86;100.00
40908;BME280;51055;59.436;24.778;2022-12-18T13:57:04;102078.34;;;-0.74;100.00
40908;BME280;51055;59.436;24.778;2022-12-18T13:59:39;102078.31;;;-0.70;100.00
40908;BME280;51055;59.436;24.778;2022-12-18T14:02:21;102074.88;;;-0.75;100.00
40908;BME280;51055;59.436;24.778;2022-12-18T14:04:50;102077.50;;;-0.75;100.00
40908;BME280;51055;59.436;24.778;2022-12-18T14:07:21;102068.00;;;-0.80;100.00
40908;BME280;51055;59.436;24.778;2022-12-18T14:09:58;102061.91;;;-0.76;100.00
40908;BME280;51055;59.436;24.778;2022-12-18T14:12:49;102074.91;;;-0.76;100.00
40908;BME280;51055;59.436;24.778;2022-12-18T14:18:02;102073.09;;;-0.70;100.00